EB1GEM-3
43.30.00N 005.36.07W
IN73EM aprs.fi
zuletzt gehoert:
2023-02-04T22:15:12Z
zuerst gehoert:
2020-12-07T14:22:19Z

APRS Gijón/Xixón [IN73EM], 2 Stunde(n), EB1GEM-3 [23:24:33, 0s].
EB1GEM 43.30.00N 005.36.07WIN73EM 0.042km 296°WNW22:15:12ZWX3in1Plus2.0 U=13.3V,T=??.?C/??.?F(3EB1GEM-3)
EA4ACU 43.29.56N 005.38.92WIN73EL 3.963km 258°WSW22:23:06ZMMDVM MMDVM HS Hat 432.7000/432.7000 CC1(3EA4ACU-1)
EA1IEJ 43.32.33N 005.38.92WIN73EM 5.796km 318°NW22:22:21ZMMDVM DMO 222.3400/222.3400 CC1(3EA1IEJ-11)
MMDVM MMDVM HS Hat 438.8500/438.8500 CC6(2EA1IEJ-1)
EA1DZR 43.31.49N 005.40.00WIN73DM 6.013km 298°WNW22:22:12ZMMDVM MMDVM HS Hat 432.2000/432.2000 CC2(3EA1DZR-2)
MMDVM DMO 434.3500/434.3500 CC1(2EA1DZR-4)
MMDVM DVMega 431.1000/431.1000 CC1(2EA1DZR-1)
EA1FFA 43.31.53N 005.40.64WIN73DM 6.806km 295°WNW22:22:33ZMMDVM MMDVM HS Hat 438.8000/438.8000 CC1(3EA1FFA-1)
ED1ZAE 43.27.99N 005.40.54WIN73DL 7.114km 238°WSW22:14:33Z400 M. PICO SAN MARTIN (GIJON) 13.2V,8.1C(3ED1ZAE-3)
ED1ZAS 43.27.52N 005.40.17WIN73DL 7.204km 231°SW22:20:15ZRD985 438.2250/430.6250 CC1
EA1FPN 43.32.38N 005.42.17WIN73DM 9.341km 298°WNW22:21:37ZMMDVM MMDVM HS Hat 439.8750/439.8750 CC1
EB1TK 43.32.22N 005.42.32WIN73DM 9.393km 296°WNW22:15:17ZWind 095°/009kn, Böen bis 015kn, Temp 10.56c, Regen 0.0mm, letzte 24h 0.0mm, seit 0h 0.0mm, Baro 1042.0h, Hum: 76%(3EB1TK-13)
LEEL 43.32.98N 005.41.71WIN73DN 9.417km 306°NW22:00:09ZHelipuerto de El Musel: LEAS 042100Z 11006KT 090V160 9999 SCT025 08/05 Q1039 NOSIG=
EA1JW 43.31.35N 005.28.83WIN73GM 10.009km 75°ENE22:22:06ZMMDVM MMDVM HS Hat 436.5000/436.5000 CC1(3EA1JW-3)
EA1FHR 43.28.72N 005.26.41WIN73GL 13.151km 100°E22:20:43ZMMDVM MMDVM HS Hat 439.1500/439.1500 CC1
EA1FLQ 43.22.00N 005.36.35WIN73EI 14.830km 182°S22:20:58ZMMDVM DVMega 430.9750/430.9750 CC1
EA1IPU 43.26.21N 005.46.62WIN73CK 15.856km 244°WSW22:22:14ZMMDVM MMDVM HS Hat 439.8000/439.8000 CC1(3EA1IPU-1)
EA1ABW 43.24.77N 005.47.77WIN73CJ 18.516km 239°WSW22:21:54ZMMDVM MMDVM HS Hat 439.8250/439.8250 CC1(3EA1ABW-2)
LEMR 43.25.83N 005.49.60WIN73CK 19.816km 247°WSW22:00:09ZAerodromo de la Morgal (123.500MHz): LEAS 042100Z 11006KT 090V160 9999 SCT025 08/05 Q1039 NOSIG=
LEGM 43.26.15N 005.49.84WIN73CK 19.873km 249°WSW22:00:08ZHelipuerto de La Morgal (123.500MHz): LEAS 042100Z 11006KT 090V160 9999 SCT025 08/05 Q1039 NOSIG=
LEHU 43.22.63N 005.49.57WIN73CJ 22.766km 233°SW22:00:08ZHelipuerto del HUCA: LEAS 042100Z 11006KT 090V160 9999 SCT025 08/05 Q1039 NOSIG=
EA1JBU 43.21.85N 005.51.13WIN73BI 25.314km 233°SW22:00:11ZEA1JBU(3EA1JBU-1)
33D00 43.21.63N 005.51.13WIN73BI 25.549km 233°SW22:01:42Z33-D-00 Protección Civil REMER / Delegación del Gobierno en Asturias
EA1JAY 43.21.54N 005.51.34WIN73BI 25.886km 233°SW22:00:11ZEA1JAY(3EA1JAY-2)
434.525MHz Nodo TETRA DMO(2EA1JAY-4)
ED1ZAU 43.23.04N 005.52.75WIN73BJ 25.927km 240°WSW22:20:16ZRD625 438.5000/430.9000 CC1
EA1HJA 43.21.47N 005.52.09WIN73BI 26.761km 234°SW22:06:08Z IN73FL WX3IN1+ 2.0 - V=13.3V,TX TEMP=20.7C(3EA1HJA-2)
IN73FL WX3IN1+ 2.0 - V=14.0V,TX TEMP=41.8C(2EA1HJA)
EA1JBE 43.30.90N 005.16.15WIN73IM 26.785km 86°E22:15:08ZRD625 438.5000/430.9000 CC1(3EA1JBE-13)
MAIN QTH http://qrz.com/db/ea1jbe(2EA1JBE-1)
EA1L 43.20.37N 005.51.13WIN73BI 27.020km 229°SW22:20:05ZWind 056°/002kn, Böen bis 006kn, Temp 7.78c, Regen 0.0mm, letzte 24h 0.0mm, seit 0h 0.0mm, Baro 1037.0h, Hum: 90%(3EA1L-13)
ED1ZAY 43.29.47N 005.56.54WIN73AL 27.583km 268°W22:20:21ZRD625 438.3000/430.7000 CC1
EA1HWX 43.19.29N 005.50.96WIN73BH 28.242km 225°SW22:22:36ZDMO - UHF 439.7250/431.0000 CC11(3EA1HWX-2)
EA1IMW 43.14.36N 005.46.93WIN73CF 32.480km 207°SSW22:22:15ZGRUPO RADIO GALENA (GRG) 430.4500/430.4500 CC1(3EA1IMW-1)
EB1DGC 43.12.60N 005.45.59WIN73CF 34.718km 202°SSW22:20:47ZMMDVM MMDVM HS Hat 433.4500/433.4500 CC1
EA1HWA 43.12.00N 005.47.40WIN73CE 36.697km 205°SSW22:21:08ZMMDVM MMDVM HS Hat 433.4500/433.4500 CC1
ED1ZAD 43.07.90N 005.38.52WIN73ED 41.069km 185°S22:10:44ZED1ZAD-3 APRS Digi/Igate(3ED1ZAD-3)
ED1ZBF 43.19.16N 005.06.74WIN73KH 44.243km 117°ESE22:20:21ZRD625 438.4750/430.8750 CC1
EA1AYL 43.29.44N 006.09.04WIN63WL 44.381km 269°W22:20:53ZMMDVM MMDVM HS Hat 433.0750/433.0750 CC1

aprs.pl 5.0.011w DL3EL © 2006-2021 [10387181]